Time;durP1;ratioP1;P1;durP2;ratioP2;P2;SDS_P1;SDS_P2;PMS_P1;PMS_P2;Temp;Humidity;BMP_temperature;BMP_pressure;BME280_temperature;BME280_humidity;BME280_pressure;Samples;Min_cycle;Max_cycle;Signal;HPM_P1;HPM_P2
2023/02/02 00:01:19;;;;;;;4.67;3.47;;;27.80;62.20;;;;;;5049935;28;20179;-67
2023/02/02 00:03:50;;;;;;;6.40;3.47;;;27.70;62.50;;;;;;5051780;28;20211;-74
2023/02/02 00:06:22;;;;;;;10.53;4.10;;;27.70;62.30;;;;;;5051037;28;20187;-66
2023/02/02 00:08:50;;;;;;;7.27;4.70;;;27.80;62.40;;;;;;5049611;28;20259;-73
2023/02/02 00:11:18;;;;;;;6.13;4.80;;;27.80;61.10;;;;;;5051658;28;20206;-69
2023/02/02 00:13:46;;;;;;;6.97;5.40;;;27.80;61.50;;;;;;5050369;28;20847;-70
2023/02/02 00:16:28;;;;;;;11.13;5.33;;;28.20;60.80;;;;;;5049493;28;20604;-70
2023/02/02 00:18:57;;;;;;;8.10;5.40;;;28.20;60.80;;;;;;5049225;28;20190;-69
2023/02/02 00:21:25;;;;;;;11.53;4.77;;;28.30;60.50;;;;;;5045864;28;20646;-71
2023/02/02 00:23:52;;;;;;;7.23;3.93;;;28.30;62.60;;;;;;5047601;28;20180;-71
2023/02/02 00:26:20;;;;;;;12.23;5.20;;;28.70;61.30;;;;;;5050616;28;20253;-73
2023/02/02 00:28:48;;;;;;;6.97;4.40;;;28.40;60.70;;;;;;5051490;28;20240;-70
2023/02/02 00:31:16;;;;;;;8.23;4.23;;;28.10;63.10;;;;;;5050828;28;20187;-68
2023/02/02 00:33:47;;;;;;;10.83;3.50;;;27.80;65.20;;;;;;5051095;28;20243;-69
2023/02/02 00:36:15;;;;;;;8.97;3.73;;;27.60;66.10;;;;;;5051459;28;20202;-69
2023/02/02 00:38:42;;;;;;;5.87;3.57;;;27.40;66.10;;;;;;5051342;28;20187;-72
2023/02/02 00:41:09;;;;;;;8.07;3.47;;;28.00;65.20;;;;;;5050845;28;20195;-71
2023/02/02 00:43:37;;;;;;;11.73;3.40;;;28.20;64.90;;;;;;5051082;28;20183;-72
2023/02/02 00:46:05;;;;;;;9.67;3.60;;;27.90;65.90;;;;;;5050971;28;20179;-76
2023/02/02 00:48:32;;;;;;;11.00;3.37;;;27.90;65.60;;;;;;5051017;28;20168;-73
2023/02/02 00:51:01;;;;;;;9.90;3.20;;;27.80;66.40;;;;;;5050649;28;20913;-71
2023/02/02 00:53:28;;;;;;;10.90;2.90;;;28.00;66.20;;;;;;5050268;28;20249;-69
2023/02/02 00:55:55;;;;;;;13.83;3.83;;;28.40;65.10;;;;;;5051066;28;20179;-73
2023/02/02 00:58:23;;;;;;;4.63;2.43;;;28.50;65.20;;;;;;5051157;28;20267;-72
2023/02/02 01:00:51;;;;;;;8.83;3.20;;;28.20;65.90;;;;;;5050610;28;20262;-72
2023/02/02 01:03:18;;;;;;;7.00;3.23;;;28.40;65.80;;;;;;5052169;28;20309;-68
2023/02/02 01:05:45;;;;;;;9.23;3.80;;;28.70;65.20;;;;;;5055052;28;20635;-71
2023/02/02 01:08:12;;;;;;;8.93;3.10;;;29.20;63.60;;;;;;5055344;28;20196;-71
2023/02/02 01:10:40;;;;;;;10.53;3.20;;;29.10;63.20;;;;;;5054543;28;20565;-71
2023/02/02 01:13:07;;;;;;;8.90;3.33;;;28.80;64.00;;;;;;5054438;28;20180;-72
2023/02/02 01:15:36;;;;;;;8.70;3.17;;;28.80;63.90;;;;;;5054560;28;20206;-71
2023/02/02 01:18:03;;;;;;;10.90;4.03;;;28.80;64.40;;;;;;5054808;28;20250;-71
2023/02/02 01:20:31;;;;;;;6.43;3.40;;;29.00;63.60;;;;;;5054417;28;20176;-77
2023/02/02 01:22:58;;;;;;;7.77;3.50;;;28.90;63.00;;;;;;5054296;28;20237;-71
2023/02/02 01:25:26;;;;;;;10.57;3.50;;;28.90;63.90;;;;;;5054217;28;20199;-72
2023/02/02 01:27:53;;;;;;;11.10;3.47;;;29.30;62.90;;;;;;5054363;28;20176;-71
2023/02/02 01:30:21;;;;;;;13.40;3.63;;;28.90;63.70;;;;;;5054364;28;20183;-71
2023/02/02 01:32:48;;;;;;;6.23;2.90;;;28.90;64.10;;;;;;5054309;28;20237;-71
2023/02/02 01:35:15;;;;;;;6.73;2.97;;;29.00;63.80;;;;;;5053839;28;20211;-73
2023/02/02 01:37:43;;;;;;;5.90;2.83;;;29.20;63.30;;;;;;5053996;28;20180;-70
2023/02/02 01:40:11;;;;;;;7.20;3.00;;;29.30;63.30;;;;;;5054551;28;20183;-73
2023/02/02 01:42:38;;;;;;;8.23;3.27;;;29.40;63.30;;;;;;5054179;28;20180;-70
2023/02/02 01:45:12;;;;;;;9.83;3.23;;;29.40;63.30;;;;;;5054309;28;20172;-73
2023/02/02 01:47:53;;;;;;;7.87;3.00;;;29.30;64.20;;;;;;5054151;28;20267;-73
2023/02/02 01:50:24;;;;;;;7.40;2.93;;;29.50;63.00;;;;;;5054371;28;20179;-73
2023/02/02 01:52:54;;;;;;;10.23;3.40;;;29.00;64.20;;;;;;5051594;28;20222;-73
2023/02/02 01:55:24;;;;;;;9.40;3.00;;;29.00;65.20;;;;;;5053736;28;20624;-71
2023/02/02 01:58:14;;;;;;;9.17;2.60;;;29.30;64.10;;;;;;5054161;28;20188;-71
2023/02/02 02:00:43;;;;;;;11.80;3.17;;;29.60;63.00;;;;;;5052973;28;20184;-70
2023/02/02 02:03:14;;;;;;;7.83;2.80;;;29.70;62.70;;;;;;5053747;28;20175;-70
2023/02/02 02:05:49;;;;;;;6.77;3.20;;;29.20;64.00;;;;;;5053736;28;20678;-71
2023/02/02 02:08:36;;;;;;;10.20;3.20;;;28.30;66.70;;;;;;5053245;28;20207;-73
2023/02/02 02:11:04;;;;;;;9.07;3.23;;;28.60;66.50;;;;;;5046301;28;20188;-71
2023/02/02 02:16:31;;;;;;;10.93;3.80;;;28.70;66.50;;;;;;5053105;28;20219;-71
2023/02/02 02:19:27;;;;;;;10.77;3.20;;;29.30;65.00;;;;;;5050683;28;20195;-70
2023/02/02 02:28:32;;;;;;;11.20;3.30;;;29.40;63.80;;;;;;5051628;28;20287;-69
2023/02/02 02:31:18;;;;;;;7.47;3.27;;;28.90;65.70;;;;;;5052225;28;20190;-73
2023/02/02 02:33:51;;;;;;;4.80;2.67;;;29.20;65.70;;;;;;5051770;28;20195;-72
2023/02/02 02:36:24;;;;;;;10.90;3.13;;;29.30;64.70;;;;;;5051292;28;20650;-70
2023/02/02 02:39:09;;;;;;;6.53;3.27;;;29.20;65.20;;;;;;5055041;28;20262;-70
2023/02/02 02:41:43;;;;;;;6.10;2.93;;;29.30;65.60;;;;;;5053462;28;20188;-71
2023/02/02 02:44:15;;;;;;;6.07;3.10;;;30.00;63.80;;;;;;5055668;28;20179;-70
2023/02/02 02:46:43;;;;;;;7.30;2.90;;;29.40;64.50;;;;;;5054765;28;20554;-69
2023/02/02 02:49:12;;;;;;;9.73;3.43;;;29.30;65.40;;;;;;5055493;28;20172;-71
2023/02/02 02:51:44;;;;;;;7.27;2.93;;;29.80;64.80;;;;;;5054188;28;20180;-69
2023/02/02 02:54:48;;;;;;;6.43;2.80;;;30.40;63.30;;;;;;5052742;28;20231;-69
2023/02/02 02:57:41;;;;;;;8.23;2.90;;;30.60;61.70;;;;;;5041374;28;20596;-71
2023/02/02 03:00:36;;;;;;;8.50;2.75;;;30.80;61.80;;;;;;5055657;28;20198;-73
2023/02/02 03:03:31;;;;;;;9.18;2.90;;;30.40;61.50;;;;;;5050532;28;20280;-72
2023/02/02 03:06:28;;;;;;;8.40;2.73;;;29.70;64.10;;;;;;5050015;28;20692;-71
2023/02/02 03:09:02;;;;;;;7.07;2.83;;;29.80;63.90;;;;;;5051340;28;20578;-71
2023/02/02 03:11:29;;;;;;;13.37;3.73;;;29.70;64.70;;;;;;5050838;28;20176;-69
2023/02/02 03:13:57;;;;;;;8.43;3.20;;;29.60;64.30;;;;;;5052647;28;20273;-70
2023/02/02 03:16:24;;;;;;;7.33;2.90;;;29.80;64.20;;;;;;5051636;28;20737;-73
2023/02/02 03:18:52;;;;;;;9.20;3.50;;;29.80;64.70;;;;;;5052055;28;20202;-72
2023/02/02 03:21:19;;;;;;;8.73;3.17;;;30.10;63.30;;;;;;5051555;28;20183;-68
2023/02/02 03:23:47;;;;;;;11.90;3.33;;;29.80;64.00;;;;;;5050355;28;20642;-71
2023/02/02 03:26:14;;;;;;;7.80;3.30;;;30.40;62.90;;;;;;5049039;28;20218;-72
2023/02/02 03:28:42;;;;;;;12.00;3.07;;;30.90;61.70;;;;;;5049822;28;20508;-70
2023/02/02 03:31:09;;;;;;;8.50;3.25;;;30.80;62.00;;;;;;5049224;28;20168;-70
2023/02/02 03:33:37;;;;;;;9.23;2.90;;;30.90;61.40;;;;;;5050604;28;20222;-70
2023/02/02 03:36:05;;;;;;;8.17;2.70;;;30.10;63.00;;;;;;5051268;28;20206;-73
2023/02/02 03:38:32;;;;;;;6.03;2.53;;;30.20;63.20;;;;;;5050181;28;20262;-70
2023/02/02 03:41:00;;;;;;;9.93;3.38;;;30.50;63.40;;;;;;5050805;28;20330;-72
2023/02/02 03:43:27;;;;;;;7.05;2.97;;;30.60;62.70;;;;;;5052075;28;20188;-71
2023/02/02 03:45:59;;;;;;;12.65;3.35;;;30.00;64.30;;;;;;5050740;28;20172;-71
2023/02/02 03:48:27;;;;;;;6.97;3.00;;;29.80;65.70;;;;;;5056639;28;20213;-74
2023/02/02 03:50:54;;;;;;;9.73;2.80;;;30.30;64.10;;;;;;5050705;28;20180;-72
2023/02/02 03:53:22;;;;;;;11.45;3.35;;;30.80;62.50;;;;;;5050751;28;20314;-71
2023/02/02 03:55:50;;;;;;;9.63;3.25;;;31.00;61.60;;;;;;5048184;28;20192;-71
2023/02/02 03:58:20;;;;;;;9.48;3.05;;;31.20;61.50;;;;;;5051042;28;20172;-71
2023/02/02 04:00:48;;;;;;;9.20;3.10;;;31.50;60.30;;;;;;5049668;28;20279;-71
2023/02/02 04:03:15;;;;;;;8.93;3.03;;;31.20;61.70;;;;;;5046699;28;20192;-72
2023/02/02 04:05:43;;;;;;;9.18;2.88;;;31.10;61.70;;;;;;5047223;28;20192;-71
2023/02/02 04:08:10;;;;;;;8.25;3.47;;;30.80;61.60;;;;;;5048358;28;20530;-75
2023/02/02 04:10:41;;;;;;;6.38;2.90;;;31.10;61.20;;;;;;5046172;28;20187;-71
2023/02/02 04:13:08;;;;;;;8.02;2.90;;;31.50;60.20;;;;;;5046579;28;20183;-75
2023/02/02 04:15:36;;;;;;;9.30;2.83;;;31.50;59.20;;;;;;5048269;28;20274;-76
2023/02/02 04:18:03;;;;;;;8.00;2.40;;;30.60;61.60;;;;;;5047947;28;20235;-70
2023/02/02 04:20:30;;;;;;;10.63;2.70;;;30.70;61.60;;;;;;5050755;28;20267;-68
2023/02/02 04:22:58;;;;;;;8.43;3.08;;;31.10;59.80;;;;;;5047301;28;20678;-70
2023/02/02 04:25:25;;;;;;;6.90;2.65;;;31.00;61.00;;;;;;5049406;28;20217;-73
2023/02/02 04:27:52;;;;;;;11.27;3.05;;;30.20;62.90;;;;;;5050809;28;20195;-73
2023/02/02 04:30:20;;;;;;;6.78;3.22;;;31.10;61.00;;;;;;5048628;28;20205;-73
2023/02/02 04:32:47;;;;;;;10.68;3.22;;;31.30;60.50;;;;;;5050726;28;20191;-72
2023/02/02 04:35:14;;;;;;;5.88;2.20;;;31.30;60.40;;;;;;5050484;28;20238;-77
2023/02/02 04:37:42;;;;;;;11.40;2.58;;;31.00;60.50;;;;;;5051538;28;20172;-70
2023/02/02 04:40:10;;;;;;;9.70;3.15;;;30.40;61.90;;;;;;5054975;28;20266;-75
2023/02/02 04:42:37;;;;;;;12.90;2.95;;;31.40;59.50;;;;;;5055059;28;20172;-68
2023/02/02 04:45:05;;;;;;;6.25;3.03;;;31.30;59.50;;;;;;5055027;28;20254;-71
2023/02/02 04:47:32;;;;;;;5.32;2.53;;;31.00;59.80;;;;;;5055080;28;20526;-74
2023/02/02 04:49:59;;;;;;;9.80;2.88;;;30.90;60.40;;;;;;5055325;28;20191;-76
2023/02/02 04:52:28;;;;;;;7.63;2.97;;;30.90;60.40;;;;;;5050880;28;20555;-69
2023/02/02 04:54:55;;;;;;;8.25;2.50;;;31.70;58.90;;;;;;5054838;28;20648;-71
2023/02/02 04:57:22;;;;;;;10.98;2.92;;;31.40;58.60;;;;;;5055231;28;20190;-73
2023/02/02 04:59:50;;;;;;;8.13;2.83;;;31.40;59.30;;;;;;5054875;28;20567;-69
2023/02/02 05:02:18;;;;;;;7.32;2.85;;;31.80;58.50;;;;;;5056371;28;20190;-67
2023/02/02 05:04:46;;;;;;;7.63;3.00;;;31.80;58.20;;;;;;5054801;28;20183;-71
2023/02/02 05:07:13;;;;;;;13.25;2.65;;;31.70;58.30;;;;;;5054892;28;20533;-69
2023/02/02 05:09:41;;;;;;;9.93;3.17;;;31.20;59.90;;;;;;5053800;28;20194;-70
2023/02/02 05:12:08;;;;;;;12.45;3.22;;;31.40;59.80;;;;;;5055308;28;20555;-69
2023/02/02 05:14:35;;;;;;;8.95;2.80;;;31.90;58.40;;;;;;5052882;28;20218;-71
2023/02/02 05:17:03;;;;;;;9.35;3.00;;;32.00;58.30;;;;;;5052511;28;20234;-70
2023/02/02 05:19:30;;;;;;;9.40;2.90;;;32.60;57.70;;;;;;5054027;28;20184;-72
2023/02/02 05:21:57;;;;;;;8.50;2.90;;;32.70;56.20;;;;;;5054550;28;20649;-76
2023/02/02 05:24:26;;;;;;;14.88;2.88;;;32.00;56.70;;;;;;5053138;28;20195;-76
2023/02/02 05:26:57;;;;;;;7.95;2.75;;;31.00;59.50;;;;;;5054593;28;20183;-75
2023/02/02 05:29:24;;;;;;;9.90;2.88;;;31.20;59.30;;;;;;5052008;28;20542;-75
2023/02/02 05:31:52;;;;;;;12.55;3.05;;;32.00;57.30;;;;;;5054160;28;20292;-71
2023/02/02 05:34:21;;;;;;;11.20;2.95;;;32.40;56.40;;;;;;5052780;28;20215;-78
2023/02/02 05:36:48;;;;;;;10.43;3.00;;;32.30;55.70;;;;;;5052808;28;20203;-72
2023/02/02 05:39:16;;;;;;;10.85;2.78;;;32.00;57.20;;;;;;5055184;28;20638;-73
2023/02/02 05:41:43;;;;;;;8.82;3.08;;;31.70;58.00;;;;;;5053806;28;20234;-79
2023/02/02 05:44:14;;;;;;;8.85;3.17;;;31.60;57.60;;;;;;5052452;28;20180;-72
2023/02/02 05:46:44;;;;;;;10.10;2.78;;;32.00;56.50;;;;;;5054234;28;20238;-77
2023/02/02 05:49:13;;;;;;;10.98;2.90;;;31.70;57.10;;;;;;5054192;28;20210;-73
2023/02/02 05:51:47;;;;;;;8.43;2.72;;;31.70;57.10;;;;;;5053763;28;20180;-76
2023/02/02 05:54:19;;;;;;;8.48;2.58;;;31.70;57.20;;;;;;5050271;28;20227;-77
2023/02/02 05:56:51;;;;;;;10.13;3.03;;;32.00;56.70;;;;;;5052851;28;20223;-75
2023/02/02 05:59:19;;;;;;;10.52;3.00;;;31.70;57.70;;;;;;5052373;28;20190;-72
2023/02/02 06:01:47;;;;;;;11.88;3.35;;;31.60;58.00;;;;;;5051472;28;20207;-77
2023/02/02 06:04:15;;;;;;;8.73;2.83;;;30.70;60.60;;;;;;5051666;28;20176;-78
2023/02/02 06:06:43;;;;;;;12.18;3.45;;;29.80;63.00;;;;;;5052709;28;20560;-78
2023/02/02 06:09:10;;;;;;;11.30;3.53;;;29.40;64.30;;;;;;5053329;28;20255;-75
2023/02/02 06:11:38;;;;;;;9.90;3.10;;;28.90;66.10;;;;;;5053407;28;20179;-75
2023/02/02 06:14:06;;;;;;;10.55;3.00;;;29.30;65.50;;;;;;5052615;28;20226;-73
2023/02/02 06:16:34;;;;;;;12.63;3.15;;;30.40;61.70;;;;;;5053343;28;20238;-74
2023/02/02 06:19:01;;;;;;;12.50;3.60;;;29.70;63.70;;;;;;5053656;28;20194;-76
2023/02/02 06:21:30;;;;;;;9.30;2.70;;;29.20;65.30;;;;;;5053039;28;20269;-77
2023/02/02 06:23:58;;;;;;;13.77;3.07;;;28.70;66.30;;;;;;5052763;28;20184;-73
2023/02/02 06:26:26;;;;;;;13.90;3.83;;;28.60;67.40;;;;;;5052979;28;20717;-79
2023/02/02 06:28:55;;;;;;;12.10;3.07;;;28.40;67.90;;;;;;5051278;28;20719;-76
2023/02/02 06:31:22;;;;;;;11.67;3.40;;;28.50;67.80;;;;;;5051702;28;20288;-73
2023/02/02 06:33:58;;;;;;;10.80;3.20;;;28.40;67.80;;;;;;5052410;28;20257;-75
2023/02/02 06:36:26;;;;;;;7.80;3.07;;;29.00;66.10;;;;;;5046917;28;20175;-74
2023/02/02 06:38:55;;;;;;;11.53;3.17;;;29.70;64.00;;;;;;5050455;28;20339;-74
2023/02/02 06:41:23;;;;;;;13.57;3.50;;;30.80;61.00;;;;;;5052042;28;20188;-73
2023/02/02 06:43:51;;;;;;;6.73;2.90;;;31.80;57.30;;;;;;5049178;28;20552;-73
2023/02/02 06:46:18;;;;;;;9.23;2.63;;;31.50;57.60;;;;;;5053790;28;20175;-70
2023/02/02 06:48:45;;;;;;;11.82;2.97;;;31.90;56.50;;;;;;5053254;28;20302;-72
2023/02/02 06:51:13;;;;;;;8.83;2.50;;;30.90;58.90;;;;;;5052474;28;20176;-72
2023/02/02 06:53:40;;;;;;;8.00;2.90;;;30.20;61.30;;;;;;5052451;28;20219;-75
2023/02/02 06:56:11;;;;;;;12.50;2.92;;;30.70;59.80;;;;;;5048984;28;20633;-73
2023/02/02 06:58:39;;;;;;;8.55;3.40;;;30.10;61.80;;;;;;5051584;28;20239;-76
2023/02/02 07:01:08;;;;;;;11.30;3.20;;;29.50;63.60;;;;;;5049098;28;20596;-70
2023/02/02 07:03:36;;;;;;;14.03;4.10;;;28.80;65.60;;;;;;5054318;28;20319;-74
2023/02/02 07:06:24;;;;;;;13.50;3.03;;;29.30;64.30;;;;;;5056355;28;20275;-70
2023/02/02 07:08:51;;;;;;;11.97;3.70;;;28.90;65.10;;;;;;5051578;28;20187;-73
2023/02/02 07:11:19;;;;;;;11.50;3.43;;;28.60;66.20;;;;;;5054765;28;20270;-73
2023/02/02 07:13:48;;;;;;;8.00;3.13;;;28.50;67.00;;;;;;5050313;28;20261;-75
2023/02/02 07:16:17;;;;;;;11.53;3.30;;;29.70;63.50;;;;;;5052918;28;20183;-65
2023/02/02 07:18:47;;;;;;;13.17;4.00;;;30.80;59.80;;;;;;5052922;28;20176;-70
2023/02/02 07:21:20;;;;;;;9.27;3.30;;;29.90;61.70;;;;;;5050740;28;20658;-73
2023/02/02 07:23:48;;;;;;;10.83;3.27;;;30.00;61.80;;;;;;5054153;28;20175;-72
2023/02/02 07:26:17;;;;;;;10.30;4.07;;;29.90;61.90;;;;;;5052668;28;20180;-70
2023/02/02 07:28:45;;;;;;;10.00;3.30;;;29.90;61.60;;;;;;5051693;28;20176;-71
2023/02/02 07:31:17;;;;;;;12.80;3.50;;;29.80;61.70;;;;;;5052428;28;20219;-67
2023/02/02 07:33:46;;;;;;;12.43;3.40;;;29.80;61.70;;;;;;5086215;28;20574;-68
2023/02/02 07:36:16;;;;;;;14.50;4.03;;;29.60;62.70;;;;;;5053050;28;20724;-74
2023/02/02 07:38:44;;;;;;;12.07;3.30;;;29.20;63.30;;;;;;5054666;28;20183;-71
2023/02/02 07:41:13;;;;;;;14.20;4.28;;;29.90;61.30;;;;;;5056821;28;20664;-73
2023/02/02 07:43:40;;;;;;;14.53;4.00;;;30.10;61.10;;;;;;5051472;28;20176;-71
2023/02/02 07:46:11;;;;;;;12.13;3.63;;;30.30;60.40;;;;;;5058405;28;20803;-76
2023/02/02 07:48:39;;;;;;;14.93;3.95;;;30.60;59.80;;;;;;5051529;28;20188;-74
2023/02/02 07:51:10;;;;;;;19.55;4.15;;;30.50;60.00;;;;;;5057300;28;20257;-72
2023/02/02 07:53:37;;;;;;;15.43;3.25;;;30.20;61.10;;;;;;5052713;28;20227;-71
2023/02/02 07:56:13;;;;;;;15.68;3.95;;;29.70;62.60;;;;;;5056458;28;20188;-73
2023/02/02 07:58:41;;;;;;;16.92;4.28;;;29.10;64.10;;;;;;5053969;28;20658;-73
2023/02/02 08:01:11;;;;;;;14.23;4.40;;;28.70;65.70;;;;;;5054648;28;20233;-69
2023/02/02 08:03:39;;;;;;;19.10;4.40;;;28.60;66.40;;;;;;5051625;28;20187;-74
2023/02/02 08:06:28;;;;;;;20.47;4.43;;;28.30;67.60;;;;;;5050567;28;20548;-73
2023/02/02 08:08:56;;;;;;;18.17;4.60;;;28.00;68.50;;;;;;5052964;28;20176;-71
2023/02/02 08:11:24;;;;;;;17.07;4.33;;;27.90;69.10;;;;;;5050990;28;20183;-71
2023/02/02 08:13:57;;;;;;;15.17;4.50;;;27.90;69.30;;;;;;5053158;28;20212;-75
2023/02/02 08:16:26;;;;;;;19.70;4.70;;;27.80;69.40;;;;;;5053767;28;20191;-73
2023/02/02 08:18:54;;;;;;;14.60;4.93;;;27.80;69.30;;;;;;5050707;28;20168;-72
2023/02/02 08:21:21;;;;;;;16.40;4.63;;;27.80;69.20;;;;;;5047643;28;20180;-72
2023/02/02 08:23:50;;;;;;;17.40;4.70;;;27.70;69.40;;;;;;5050299;28;20184;-71
2023/02/02 08:26:23;;;;;;;15.70;4.47;;;27.70;69.40;;;;;;5050136;28;20259;-73
2023/02/02 08:28:59;;;;;;;16.13;4.63;;;27.60;69.40;;;;;;5049707;28;20187;-71
2023/02/02 08:31:30;;;;;;;19.73;4.60;;;27.70;69.50;;;;;;5047976;28;20184;-70
2023/02/02 08:33:57;;;;;;;18.17;4.70;;;27.60;69.90;;;;;;5049347;28;20216;-72
2023/02/02 08:36:27;;;;;;;16.00;4.30;;;27.50;70.20;;;;;;5044172;28;20267;-71
2023/02/02 08:38:55;;;;;;;17.03;4.07;;;27.50;70.20;;;;;;5048282;28;20184;-69
2023/02/02 08:41:24;;;;;;;15.87;4.63;;;27.50;70.10;;;;;;5051310;28;20661;-73
2023/02/02 08:43:51;;;;;;;15.20;4.67;;;27.40;70.30;;;;;;5050997;28;20202;-72
2023/02/02 08:46:19;;;;;;;19.97;4.60;;;27.30;70.60;;;;;;5051093;28;20187;-70
2023/02/02 08:48:47;;;;;;;17.93;4.77;;;27.20;70.80;;;;;;5050870;28;20187;-72
2023/02/02 08:51:18;;;;;;;16.50;4.87;;;27.20;71.00;;;;;;5052988;28;20666;-69
2023/02/02 08:53:46;;;;;;;17.60;4.67;;;27.10;71.40;;;;;;5052753;28;20843;-68
2023/02/02 08:56:16;;;;;;;16.23;4.83;;;27.00;71.60;;;;;;5050998;28;20180;-68
2023/02/02 08:58:52;;;;;;;17.73;4.60;;;26.90;72.00;;;;;;5050107;28;20287;-71
2023/02/02 09:01:22;;;;;;;17.53;4.97;;;26.80;72.50;;;;;;5046421;28;20197;-68
2023/02/02 09:03:54;;;;;;;17.00;5.50;;;26.80;72.80;;;;;;5047941;28;20187;-70
2023/02/02 09:06:23;;;;;;;17.30;5.10;;;26.70;73.20;;;;;;5047495;28;20192;-71
2023/02/02 09:08:51;;;;;;;21.83;5.27;;;26.60;73.60;;;;;;5047974;28;20296;-68
2023/02/02 09:11:19;;;;;;;23.00;5.67;;;26.60;73.70;;;;;;5049389;28;20346;-68
2023/02/02 09:13:48;;;;;;;21.77;5.57;;;26.50;74.20;;;;;;5046286;28;20216;-75
2023/02/02 09:16:17;;;;;;;22.50;5.80;;;26.50;74.50;;;;;;5049128;28;20532;-68
2023/02/02 09:18:45;;;;;;;20.50;5.00;;;26.40;74.60;;;;;;5046129;28;20183;-72
2023/02/02 09:21:15;;;;;;;18.23;5.87;;;26.30;74.60;;;;;;5044349;28;20267;-68
2023/02/02 09:23:44;;;;;;;21.47;5.17;;;26.30;74.90;;;;;;5046661;28;20241;-68
2023/02/02 09:26:12;;;;;;;17.93;4.57;;;26.30;75.10;;;;;;5053235;28;20183;-70
2023/02/02 09:28:42;;;;;;;22.27;4.57;;;26.30;75.20;;;;;;5052431;28;20637;-69
2023/02/02 09:31:10;;;;;;;22.33;5.27;;;26.30;75.20;;;;;;5049065;28;20226;-70
2023/02/02 09:33:38;;;;;;;16.07;4.73;;;26.20;75.20;;;;;;5050336;28;20179;-68
2023/02/02 09:36:06;;;;;;;15.67;4.63;;;26.20;75.30;;;;;;5051962;28;20180;-68
2023/02/02 09:38:34;;;;;;;16.13;4.73;;;26.20;75.40;;;;;;5052522;28;20238;-69
2023/02/02 09:41:13;;;;;;;18.40;4.97;;;26.10;75.60;;;;;;5052488;28;20272;-71
2023/02/02 09:44:07;;;;;;;22.40;5.10;;;26.10;75.60;;;;;;5053042;28;21034;-70
2023/02/02 09:46:44;;;;;;;26.03;5.13;;;26.00;75.90;;;;;;5052989;28;20229;-69
2023/02/02 09:49:22;;;;;;;20.70;5.10;;;26.00;75.60;;;;;;5047567;28;20595;-70
2023/02/02 09:52:01;;;;;;;14.67;4.70;;;26.00;75.90;;;;;;5048872;28;20271;-69
2023/02/02 09:54:44;;;;;;;19.20;4.57;;;26.00;76.00;;;;;;5052788;28;20234;-70
2023/02/02 09:57:19;;;;;;;19.70;5.30;;;26.00;76.30;;;;;;5049358;28;20180;-70
2023/02/02 09:59:49;;;;;;;21.20;4.73;;;25.90;76.30;;;;;;5056252;28;20183;-73
2023/02/02 10:02:41;;;;;;;18.57;5.37;;;25.90;76.30;;;;;;5046212;28;20587;-72
2023/02/02 10:05:18;;;;;;;25.70;5.90;;;25.90;76.60;;;;;;5048710;28;20219;-70
2023/02/02 10:07:50;;;;;;;16.20;4.70;;;25.80;76.70;;;;;;5051420;28;20799;-73
2023/02/02 10:10:26;;;;;;;17.57;5.13;;;25.80;76.90;;;;;;5049454;28;20191;-74
2023/02/02 10:13:05;;;;;;;18.00;5.57;;;25.80;77.20;;;;;;5052266;28;20191;-74
2023/02/02 10:15:50;;;;;;;14.70;4.70;;;25.80;77.20;;;;;;5053705;28;20211;-71
2023/02/02 10:18:46;;;;;;;16.63;5.10;;;25.80;77.40;;;;;;5055948;28;20184;-74
2023/02/02 10:21:40;;;;;;;23.50;5.90;;;25.80;77.40;;;;;;5052717;28;20180;-72
2023/02/02 10:24:21;;;;;;;20.93;5.33;;;25.80;77.40;;;;;;5055201;28;20589;-71
2023/02/02 10:26:55;;;;;;;15.17;5.30;;;25.80;77.50;;;;;;5052241;28;20180;-72
2023/02/02 10:29:22;;;;;;;15.17;4.80;;;25.70;77.70;;;;;;5051440;28;20214;-72
2023/02/02 10:32:24;;;;;;;24.30;5.60;;;25.70;77.70;;;;;;5054197;28;20267;-69
2023/02/02 10:35:02;;;;;;;23.53;5.37;;;25.70;77.90;;;;;;5047356;28;20227;-71
2023/02/02 10:37:55;;;;;;;17.10;5.17;;;25.60;78.00;;;;;;5047316;28;20179;-71
2023/02/02 10:40:39;;;;;;;20.83;4.57;;;25.60;78.50;;;;;;5052150;28;20210;-69
2023/02/02 10:43:47;;;;;;;26.13;5.07;;;25.60;78.40;;;;;;5051706;28;20215;-72
2023/02/02 10:46:36;;;;;;;14.63;4.70;;;25.50;78.50;;;;;;5059315;28;20233;-70
2023/02/02 10:49:20;;;;;;;21.33;5.07;;;25.50;78.90;;;;;;5050848;28;20188;-71
2023/02/02 10:52:10;;;;;;;24.27;5.37;;;25.50;78.80;;;;;;5052341;28;20318;-69
2023/02/02 10:55:14;;;;;;;18.13;5.10;;;25.50;79.00;;;;;;5051350;28;20698;-73
2023/02/02 10:58:11;;;;;;;18.07;5.47;;;25.50;78.50;;;;;;5050605;28;20191;-73
2023/02/02 11:01:00;;;;;;;18.70;5.10;;;25.50;78.20;;;;;;5052787;28;20237;-74
2023/02/02 11:03:33;;;;;;;15.43;4.73;;;25.50;78.40;;;;;;5082907;28;20180;-72
2023/02/02 11:08:58;;;;;;;13.87;4.60;;;25.40;78.90;;;;;;5052522;28;20716;-73
2023/02/02 11:11:33;;;;;;;12.80;4.47;;;25.50;78.90;;;;;;5048174;28;20188;-72
2023/02/02 11:14:09;;;;;;;15.47;5.00;;;25.40;79.10;;;;;;5052468;28;20218;-73
2023/02/02 11:16:42;;;;;;;12.93;4.37;;;25.30;79.30;;;;;;5052623;28;20267;-73
2023/02/02 11:19:21;;;;;;;21.50;5.17;;;25.30;78.90;;;;;;5049827;28;20191;-73
2023/02/02 11:22:10;;;;;;;13.63;3.87;;;25.30;79.00;;;;;;5049328;28;20183;-72
2023/02/02 11:24:48;;;;;;;14.03;5.10;;;25.40;78.70;;;;;;5050753;28;20194;-73
2023/02/02 11:27:25;;;;;;;15.70;4.43;;;25.40;78.90;;;;;;5051484;28;20183;-73
2023/02/02 11:29:55;;;;;;;21.13;4.77;;;25.40;79.10;;;;;;5048999;28;20269;-73
2023/02/02 11:32:35;;;;;;;15.87;4.77;;;25.30;79.30;;;;;;5051917;28;20186;-73
2023/02/02 11:35:08;;;;;;;16.50;5.03;;;25.30;79.50;;;;;;5050208;28;20641;-72
2023/02/02 11:37:51;;;;;;;14.97;4.47;;;25.30;80.00;;;;;;5048772;28;20183;-71
2023/02/02 11:40:33;;;;;;;21.17;5.27;;;25.20;80.20;;;;;;5052452;28;20273;-72
2023/02/02 11:43:26;;;;;;;18.13;4.67;;;25.20;80.50;;;;;;5052126;28;20182;-73
2023/02/02 11:46:00;;;;;;;14.23;4.30;;;25.20;80.50;;;;;;5042257;28;20191;-72
2023/02/02 11:48:34;;;;;;;17.50;4.57;;;25.20;80.60;;;;;;5051259;28;20183;-72
2023/02/02 11:51:02;;;;;;;13.13;3.87;;;25.20;80.70;;;;;;5048174;28;20218;-74
2023/02/02 11:53:37;;;;;;;20.00;5.23;;;25.20;80.50;;;;;;5051226;28;20690;-69
2023/02/02 11:56:09;;;;;;;14.00;4.27;;;25.30;80.10;;;;;;5051898;28;20244;-69
2023/02/02 11:59:03;;;;;;;18.30;4.70;;;25.30;80.20;;;;;;5048694;28;20631;-71
2023/02/02 12:01:42;;;;;;;10.20;4.17;;;25.20;80.30;;;;;;5049987;28;20282;-69
2023/02/02 12:04:30;;;;;;;14.50;4.90;;;25.20;80.40;;;;;;5051996;28;20186;-69
2023/02/02 12:06:57;;;;;;;14.67;4.30;;;25.10;80.80;;;;;;5051633;28;20187;-69
2023/02/02 12:09:26;;;;;;;15.23;4.53;;;25.10;80.70;;;;;;5051281;28;20222;-68
2023/02/02 12:12:01;;;;;;;12.43;4.00;;;25.10;80.20;;;;;;5051818;28;20555;-69
2023/02/02 12:14:40;;;;;;;11.67;4.57;;;25.10;80.30;;;;;;5051897;28;20233;-69
2023/02/02 12:17:16;;;;;;;11.50;4.57;;;25.10;80.20;;;;;;5051311;28;20184;-70
2023/02/02 12:20:14;;;;;;;14.33;4.33;;;25.20;79.90;;;;;;5051273;28;20647;-73
2023/02/02 12:23:08;;;;;;;7.67;3.93;;;25.20;79.90;;;;;;5051047;28;20681;-72
2023/02/02 12:25:41;;;;;;;12.73;4.13;;;25.30;79.60;;;;;;5049809;28;20554;-73
2023/02/02 12:28:41;;;;;;;16.17;4.57;;;25.20;79.30;;;;;;5048758;28;20188;-74
2023/02/02 12:31:36;;;;;;;14.13;3.67;;;25.30;79.50;;;;;;5051961;28;20270;-75
2023/02/02 12:34:24;;;;;;;14.67;4.30;;;25.00;79.50;;;;;;5051015;28;20252;-74
2023/02/02 12:37:17;;;;;;;11.60;3.73;;;24.90;80.00;;;;;;5048685;28;20609;-74
2023/02/02 12:40:18;;;;;;;8.90;3.87;;;24.80;80.30;;;;;;5050505;28;20191;-75
2023/02/02 12:42:49;;;;;;;11.47;3.83;;;24.80;80.40;;;;;;5051211;28;20192;-75
2023/02/02 12:45:40;;;;;;;14.10;4.47;;;24.70;80.00;;;;;;5051134;28;20179;-73
2023/02/02 12:48:43;;;;;;;12.07;4.03;;;24.70;79.80;;;;;;5047956;28;20198;-75
2023/02/02 12:51:21;;;;;;;16.03;4.80;;;24.70;79.50;;;;;;5044916;28;20188;-73
2023/02/02 12:54:08;;;;;;;11.50;3.97;;;24.70;79.50;;;;;;5051108;28;20399;-73
2023/02/02 12:57:02;;;;;;;11.23;4.17;;;24.60;79.60;;;;;;5050432;28;20184;-72
2023/02/02 12:59:39;;;;;;;12.33;4.70;;;24.60;79.50;;;;;;5052379;28;20176;-72
2023/02/02 13:02:31;;;;;;;9.50;3.83;;;24.60;79.80;;;;;;5055924;28;20175;-72
2023/02/02 13:05:22;;;;;;;10.13;4.13;;;24.50;80.10;;;;;;5050684;28;20259;-72
2023/02/02 13:07:52;;;;;;;11.00;4.90;;;24.40;80.20;;;;;;5054640;28;20179;-72
2023/02/02 13:10:42;;;;;;;13.60;4.13;;;24.40;80.40;;;;;;5054306;28;20172;-73
2023/02/02 13:13:17;;;;;;;10.87;4.20;;;24.30;80.60;;;;;;5051116;28;20188;-72
2023/02/02 13:15:49;;;;;;;10.43;4.10;;;24.30;80.60;;;;;;5054560;28;20219;-73
2023/02/02 13:18:35;;;;;;;12.73;4.03;;;24.30;80.40;;;;;;5055925;28;20175;-73
2023/02/02 13:21:08;;;;;;;9.63;3.87;;;24.30;80.50;;;;;;5051945;28;20187;-74
2023/02/02 13:23:42;;;;;;;7.47;3.80;;;24.30;80.30;;;;;;5053861;28;20191;-75